createdAt,value
2022-11-16T00:00:12.806Z,28.93
2022-11-16T00:02:42.247Z,27.53
2022-11-16T00:05:10.741Z,28.00
2022-11-16T00:07:39.073Z,29.20
2022-11-16T00:10:08.946Z,29.57
2022-11-16T00:12:37.184Z,29.20
2022-11-16T00:15:06.931Z,27.90
2022-11-16T00:17:35.540Z,28.83
2022-11-16T00:20:06.058Z,28.47
2022-11-16T00:22:34.315Z,27.50
2022-11-16T00:25:02.643Z,26.83
2022-11-16T00:27:30.996Z,27.80
2022-11-16T00:29:59.300Z,28.50
2022-11-16T00:32:27.561Z,26.30
2022-11-16T00:34:55.897Z,24.50
2022-11-16T00:37:25.531Z,27.67
2022-11-16T00:39:53.785Z,26.57
2022-11-16T00:42:22.065Z,26.67
2022-11-16T00:44:50.346Z,27.13
2022-11-16T00:47:18.683Z,25.60
2022-11-16T00:49:47.957Z,27.73
2022-11-16T00:52:16.266Z,27.77
2022-11-16T00:54:45.942Z,28.73
2022-11-16T00:57:14.151Z,28.20
2022-11-16T00:59:42.438Z,26.63
2022-11-16T01:02:10.696Z,27.50
2022-11-16T01:04:39.058Z,26.97
2022-11-16T01:07:07.382Z,26.47
2022-11-16T01:09:35.866Z,26.90
2022-11-16T01:12:12.712Z,26.17
2022-11-16T01:14:42.671Z,26.23
2022-11-16T01:17:10.950Z,28.13
2022-11-16T01:19:39.810Z,29.10
2022-11-16T01:22:08.143Z,27.20
2022-11-16T01:24:36.427Z,26.27
2022-11-16T01:27:06.206Z,26.40
2022-11-16T01:29:34.479Z,27.63
2022-11-16T01:32:02.746Z,27.33
2022-11-16T01:34:31.105Z,24.37
2022-11-16T01:36:59.684Z,26.30
2022-11-16T01:39:27.917Z,27.80
2022-11-16T01:41:56.207Z,27.60
2022-11-16T01:44:59.802Z,25.90
2022-11-16T01:47:28.999Z,25.07
2022-11-16T01:50:02.658Z,24.93
2022-11-16T01:52:33.072Z,26.73
2022-11-16T01:55:01.554Z,26.67
2022-11-16T01:57:33.071Z,25.03
2022-11-16T02:00:03.738Z,25.90
2022-11-16T02:02:32.047Z,25.30
2022-11-16T02:05:00.382Z,25.40
2022-11-16T02:08:01.595Z,26.20
2022-11-16T02:10:49.844Z,26.43
2022-11-16T02:13:29.544Z,25.80
2022-11-16T02:16:03.730Z,25.40
2022-11-16T02:18:37.982Z,24.97
2022-11-16T02:21:33.015Z,24.70
2022-11-16T02:24:42.603Z,25.37
2022-11-16T02:27:43.035Z,25.80
2022-11-16T02:30:12.838Z,25.70
2022-11-16T02:32:45.028Z,25.80
2022-11-16T02:35:15.461Z,25.37
2022-11-16T02:37:47.562Z,26.60
2022-11-16T02:40:17.431Z,24.77
2022-11-16T02:42:49.950Z,25.43
2022-11-16T02:45:22.867Z,26.40
2022-11-16T02:47:54.005Z,25.73
2022-11-16T02:50:23.368Z,26.33
2022-11-16T02:52:51.922Z,27.17
2022-11-16T02:55:20.324Z,26.43
2022-11-16T02:57:52.593Z,25.33
2022-11-16T03:00:24.182Z,25.77
2022-11-16T03:03:00.978Z,26.80
2022-11-16T03:05:33.017Z,25.90
2022-11-16T03:08:09.819Z,25.90
2022-11-16T03:10:57.549Z,26.67
2022-11-16T03:13:27.957Z,27.10
2022-11-16T03:15:57.870Z,26.07
2022-11-16T03:18:27.745Z,27.83
2022-11-16T03:20:59.394Z,29.87
2022-11-16T03:23:28.020Z,29.77
2022-11-16T03:25:56.356Z,28.77
2022-11-16T03:28:30.141Z,30.50
2022-11-16T03:31:02.414Z,32.77
2022-11-16T03:33:32.896Z,29.70
2022-11-16T03:36:04.104Z,30.77
2022-11-16T03:38:33.350Z,31.13
2022-11-16T03:41:03.289Z,31.90
2022-11-16T03:43:31.737Z,33.37
2022-11-16T03:46:01.695Z,32.40
2022-11-16T03:48:36.048Z,32.70
2022-11-16T03:51:05.379Z,33.13
2022-11-16T03:53:33.662Z,34.07
2022-11-16T03:56:02.031Z,31.90
2022-11-16T03:58:30.348Z,33.17
2022-11-16T04:01:00.522Z,36.07
2022-11-16T04:03:28.895Z,33.87
2022-11-16T04:06:15.047Z,33.07
2022-11-16T04:09:00.508Z,35.80
2022-11-16T04:11:46.296Z,33.50
2022-11-16T04:14:33.018Z,32.60
2022-11-16T04:17:20.325Z,33.20
2022-11-16T04:20:06.022Z,36.57
2022-11-16T04:22:53.148Z,37.40
2022-11-16T04:25:22.901Z,37.47
2022-11-16T04:28:08.769Z,37.03
2022-11-16T04:30:50.913Z,34.87
2022-11-16T04:33:37.806Z,37.80
2022-11-16T04:36:24.183Z,36.70
2022-11-16T04:38:52.458Z,36.93
2022-11-16T04:41:38.373Z,37.43
2022-11-16T04:44:07.106Z,37.30
2022-11-16T04:46:52.972Z,37.97
2022-11-16T04:49:22.697Z,36.83
2022-11-16T04:51:51.041Z,36.47
2022-11-16T04:54:19.342Z,36.10
2022-11-16T04:56:47.606Z,36.47
2022-11-16T04:59:15.907Z,35.10
2022-11-16T05:02:00.647Z,38.23
2022-11-16T05:04:30.295Z,35.70
2022-11-16T05:06:58.657Z,39.33
2022-11-16T05:09:26.975Z,40.63
2022-11-16T05:11:55.275Z,41.07
2022-11-16T05:14:23.498Z,39.30
2022-11-16T05:16:51.851Z,40.00
2022-11-16T05:19:37.264Z,37.77
2022-11-16T05:22:06.949Z,38.10
2022-11-16T05:24:34.286Z,39.77
2022-11-16T05:27:02.877Z,40.67
2022-11-16T05:29:31.487Z,42.93
2022-11-16T05:31:59.878Z,39.07
2022-11-16T05:34:28.237Z,41.10
2022-11-16T05:36:57.294Z,39.60
2022-11-16T05:39:27.076Z,42.57
2022-11-16T05:41:55.518Z,41.73
2022-11-16T05:44:23.859Z,42.53
2022-11-16T05:46:52.218Z,39.63
2022-11-16T05:49:21.143Z,39.70
2022-11-16T05:51:49.680Z,40.80
2022-11-16T05:54:19.777Z,39.50
2022-11-16T05:56:50.240Z,39.37
2022-11-16T05:59:20.046Z,38.40
2022-11-16T06:01:48.408Z,38.83
2022-11-16T06:07:05.910Z,41.10
2022-11-16T06:09:34.221Z,41.40
2022-11-16T06:12:04.070Z,41.00
2022-11-16T06:14:32.411Z,37.00
2022-11-16T06:17:00.681Z,38.23
2022-11-16T06:19:32.459Z,39.40
2022-11-16T06:22:01.044Z,36.93
2022-11-16T06:24:29.427Z,40.57
2022-11-16T06:26:57.719Z,39.07
2022-11-16T06:29:27.373Z,39.30
2022-11-16T06:31:55.682Z,38.10
2022-11-16T06:34:24.653Z,41.57
2022-11-16T06:36:52.982Z,40.20
2022-11-16T06:39:21.305Z,43.20
2022-11-16T06:41:49.586Z,39.90
2022-11-16T06:44:18.176Z,40.70
2022-11-16T06:46:47.846Z,47.30
2022-11-16T06:49:16.206Z,43.90
2022-11-16T06:51:44.526Z,43.37
2022-11-16T06:54:12.813Z,41.77
2022-11-16T06:56:41.095Z,41.67
2022-11-16T06:59:09.501Z,39.07
2022-11-16T07:01:37.830Z,42.80
2022-11-16T07:04:12.188Z,41.60
2022-11-16T07:06:41.155Z,42.73
2022-11-16T07:09:09.551Z,41.47
2022-11-16T07:11:38.075Z,43.87
2022-11-16T07:14:06.356Z,45.47
2022-11-16T07:16:36.629Z,44.70
2022-11-16T07:19:05.004Z,45.30
2022-11-16T07:21:34.701Z,46.67
2022-11-16T07:24:03.024Z,46.73
2022-11-16T07:26:31.594Z,48.00
2022-11-16T07:29:00.030Z,45.97
2022-11-16T07:31:28.451Z,45.17
2022-11-16T07:33:56.746Z,46.70
2022-11-16T07:36:25.788Z,46.70
2022-11-16T07:38:55.447Z,42.60
2022-11-16T07:41:23.894Z,43.77
2022-11-16T07:43:53.337Z,46.40
2022-11-16T07:46:47.543Z,47.97
2022-11-16T07:49:15.915Z,42.80
2022-11-16T07:51:44.382Z,46.00
2022-11-16T07:54:15.097Z,41.87
2022-11-16T07:56:43.541Z,43.53
2022-11-16T07:59:12.116Z,44.43
2022-11-16T08:01:40.411Z,43.47
2022-11-16T08:04:08.791Z,43.27
2022-11-16T08:06:37.103Z,44.10
2022-11-16T08:09:05.632Z,40.00
2022-11-16T08:11:35.487Z,41.23
2022-11-16T08:14:03.761Z,40.03
2022-11-16T08:16:33.234Z,45.03
2022-11-16T08:19:02.442Z,42.37
2022-11-16T08:21:30.809Z,40.03
2022-11-16T08:23:59.278Z,40.63
2022-11-16T08:26:27.727Z,38.70
2022-11-16T08:28:57.460Z,37.63
2022-11-16T08:31:27.201Z,38.00
2022-11-16T08:33:56.520Z,35.63
2022-11-16T08:36:25.013Z,37.77
2022-11-16T08:38:53.464Z,37.40
2022-11-16T08:41:22.038Z,35.80
2022-11-16T08:43:53.227Z,35.70
2022-11-16T08:46:23.463Z,33.13
2022-11-16T08:48:55.817Z,35.70
2022-11-16T08:51:24.279Z,36.00
2022-11-16T08:53:56.937Z,31.37
2022-11-16T08:56:27.052Z,33.10
2022-11-16T08:58:58.842Z,31.67
2022-11-16T09:01:29.791Z,31.60
2022-11-16T09:03:58.387Z,31.80
2022-11-16T09:06:27.412Z,31.57
2022-11-16T09:08:55.943Z,31.10
2022-11-16T09:11:26.220Z,31.97
2022-11-16T09:13:55.327Z,28.70
2022-11-16T09:16:23.845Z,29.47
2022-11-16T09:18:53.954Z,29.50
2022-11-16T09:21:23.353Z,27.37
2022-11-16T09:23:51.772Z,27.37
2022-11-16T09:26:21.478Z,31.70
2022-11-16T09:28:49.757Z,27.83
2022-11-16T09:31:23.116Z,27.53
2022-11-16T09:33:53.321Z,26.90
2022-11-16T09:36:21.918Z,27.00
2022-11-16T09:41:50.877Z,23.10
2022-11-16T09:44:37.802Z,20.17
2022-11-16T09:47:06.166Z,20.13
2022-11-16T09:49:39.040Z,18.60
2022-11-16T09:52:10.913Z,19.53
2022-11-16T09:54:41.743Z,17.73
2022-11-16T09:57:13.360Z,16.80
2022-11-16T09:59:44.053Z,14.97
2022-11-16T10:02:20.347Z,16.40
2022-11-16T10:04:58.314Z,15.27
2022-11-16T10:07:29.945Z,13.30
2022-11-16T10:09:58.427Z,14.80
2022-11-16T10:12:28.902Z,14.80
2022-11-16T10:15:31.528Z,14.00
2022-11-16T10:18:14.267Z,14.17
2022-11-16T10:21:08.801Z,14.60
2022-11-16T10:23:49.849Z,13.93
2022-11-16T10:26:25.982Z,16.10
2022-11-16T10:29:15.419Z,15.77
2022-11-16T10:31:55.958Z,17.70
2022-11-16T10:34:26.184Z,17.10
2022-11-16T10:36:58.996Z,17.50
2022-11-16T10:39:27.563Z,18.27
2022-11-16T10:41:55.841Z,18.30
2022-11-16T10:44:28.580Z,17.83
2022-11-16T10:47:00.333Z,19.80
2022-11-16T10:49:34.402Z,18.80
2022-11-16T10:52:04.101Z,19.00
2022-11-16T10:54:33.007Z,21.47
2022-11-16T10:57:05.848Z,19.53
2022-11-16T10:59:44.256Z,19.70
2022-11-16T11:02:31.890Z,18.53
2022-11-16T11:05:03.891Z,19.50
2022-11-16T11:07:34.668Z,18.20
2022-11-16T11:10:03.055Z,17.97
2022-11-16T11:12:40.321Z,19.30
2022-11-16T11:15:27.111Z,16.60
2022-11-16T11:18:21.290Z,19.43
2022-11-16T11:20:51.089Z,19.20
2022-11-16T11:23:22.264Z,19.80
2022-11-16T11:25:53.536Z,19.30
2022-11-16T11:28:24.772Z,18.30
2022-11-16T11:30:59.183Z,19.37
2022-11-16T11:33:29.763Z,17.63
2022-11-16T11:36:01.905Z,19.43
2022-11-16T11:38:32.098Z,18.60
2022-11-16T11:41:01.550Z,18.23
2022-11-16T11:43:30.944Z,20.87
2022-11-16T11:46:07.298Z,18.70
2022-11-16T11:48:43.687Z,19.13
2022-11-16T11:51:15.238Z,19.70
2022-11-16T11:53:56.821Z,17.43
2022-11-16T11:56:25.340Z,20.53
2022-11-16T11:58:53.590Z,18.97
2022-11-16T12:01:51.642Z,18.97
2022-11-16T12:05:20.199Z,20.20
2022-11-16T12:08:12.483Z,19.10
2022-11-16T12:10:46.327Z,17.87
2022-11-16T12:13:40.791Z,19.40
2022-11-16T12:16:13.333Z,19.10
2022-11-16T12:18:57.955Z,19.23
2022-11-16T12:21:36.397Z,19.57
2022-11-16T12:24:19.342Z,19.33
2022-11-16T12:26:56.641Z,20.80
2022-11-16T12:29:27.095Z,20.50
2022-11-16T12:32:52.111Z,21.80
2022-11-16T12:35:45.849Z,20.00
2022-11-16T12:38:33.857Z,20.53
2022-11-16T12:41:13.223Z,19.60
2022-11-16T12:43:47.020Z,20.87
2022-11-16T12:46:20.811Z,20.70
2022-11-16T12:49:27.334Z,18.97
2022-11-16T12:52:05.569Z,19.50
2022-11-16T12:58:04.276Z,17.80
2022-11-16T13:00:39.743Z,19.80
2022-11-16T13:03:16.590Z,19.07
2022-11-16T13:05:54.003Z,20.20
2022-11-16T13:08:35.112Z,19.77
2022-11-16T13:11:08.756Z,20.03
2022-11-16T13:13:37.451Z,18.37
2022-11-16T13:16:08.215Z,20.40
2022-11-16T13:18:38.982Z,18.80
2022-11-16T13:21:12.180Z,19.00
2022-11-16T13:23:48.140Z,19.23
2022-11-16T13:26:22.213Z,19.50
2022-11-16T13:28:55.933Z,19.10
2022-11-16T13:31:29.980Z,18.10
2022-11-16T13:34:02.273Z,17.87
2022-11-16T13:36:45.452Z,18.30
2022-11-16T13:39:21.900Z,18.30
2022-11-16T13:41:51.346Z,16.13
2022-11-16T13:44:29.754Z,21.97
2022-11-16T13:47:04.418Z,21.50
2022-11-16T13:49:35.596Z,18.17
2022-11-16T13:52:22.099Z,16.47
2022-11-16T13:54:53.243Z,16.77
2022-11-16T13:57:25.267Z,18.23
2022-11-16T14:00:10.179Z,17.20
2022-11-16T14:02:40.772Z,16.53
2022-11-16T14:05:17.517Z,15.07
2022-11-16T14:07:49.954Z,16.60
2022-11-16T14:11:02.470Z,16.63
2022-11-16T14:13:40.524Z,16.90
2022-11-16T14:16:45.537Z,16.20
2022-11-16T14:19:57.516Z,14.83
2022-11-16T14:22:59.982Z,15.33
2022-11-16T14:25:33.485Z,13.47
2022-11-16T14:28:14.562Z,14.10
2022-11-16T14:30:52.865Z,14.17
2022-11-16T14:33:31.118Z,13.80
2022-11-16T14:36:00.999Z,14.50
2022-11-16T14:38:32.659Z,14.30
2022-11-16T14:41:02.071Z,13.53
2022-11-16T14:43:34.245Z,18.10
2022-11-16T14:46:05.649Z,17.27
2022-11-16T14:48:33.978Z,14.50
2022-11-16T14:51:07.885Z,19.30
2022-11-16T14:53:37.957Z,16.23
2022-11-16T14:56:11.681Z,15.37
2022-11-16T14:58:40.033Z,16.13
2022-11-16T15:01:15.070Z,14.63
2022-11-16T15:03:56.482Z,14.17
2022-11-16T15:06:26.417Z,16.70
2022-11-16T15:08:56.425Z,14.40
2022-11-16T15:11:48.209Z,13.50
2022-11-16T15:14:22.442Z,14.93
2022-11-16T15:16:52.190Z,14.10
2022-11-16T15:19:20.716Z,13.93
2022-11-16T15:21:54.684Z,14.97
2022-11-16T15:24:31.841Z,16.20
2022-11-16T15:27:11.648Z,15.10
2022-11-16T15:29:39.930Z,14.13
2022-11-16T15:32:08.747Z,14.27
2022-11-16T15:34:37.509Z,13.97
2022-11-16T15:37:07.520Z,13.77
2022-11-16T15:39:36.082Z,14.53
2022-11-16T15:42:04.578Z,14.30
2022-11-16T15:44:33.009Z,13.73
2022-11-16T15:47:01.324Z,13.87
2022-11-16T15:49:31.189Z,12.83
2022-11-16T15:51:59.619Z,16.50
2022-11-16T15:54:30.304Z,14.17
2022-11-16T15:57:00.192Z,13.83
2022-11-16T15:59:31.226Z,14.97
2022-11-16T16:01:59.601Z,13.70
2022-11-16T16:04:28.901Z,13.60
2022-11-16T16:06:57.990Z,14.70
2022-11-16T16:09:29.790Z,16.50
2022-11-16T16:12:13.365Z,14.00
2022-11-16T16:14:41.703Z,13.43
2022-11-16T16:17:10.142Z,13.10
2022-11-16T16:19:41.018Z,13.07
2022-11-16T16:22:15.133Z,12.97
2022-11-16T16:24:45.963Z,13.60
2022-11-16T16:27:18.926Z,15.70
2022-11-16T16:29:47.852Z,12.27
2022-11-16T16:32:24.308Z,10.90
2022-11-16T16:34:52.814Z,12.00
2022-11-16T16:37:21.126Z,11.50
2022-11-16T16:39:50.780Z,11.47
2022-11-16T16:42:19.145Z,12.27
2022-11-16T16:44:48.327Z,11.83
2022-11-16T16:47:16.774Z,13.23
2022-11-16T16:49:45.060Z,13.10
2022-11-16T16:52:13.727Z,13.23
2022-11-16T16:54:42.293Z,11.57
2022-11-16T16:57:15.893Z,12.67
2022-11-16T16:59:45.294Z,11.33
2022-11-16T17:02:15.315Z,62.13
2022-11-16T17:04:46.506Z,57.07
2022-11-16T17:07:14.833Z,22.00
2022-11-16T17:09:43.296Z,16.13
2022-11-16T17:12:11.896Z,16.63
2022-11-16T17:14:41.625Z,13.83
2022-11-16T17:17:10.279Z,11.20
2022-11-16T17:19:38.531Z,13.53
2022-11-16T17:22:06.821Z,12.30
2022-11-16T17:24:36.267Z,12.37
2022-11-16T17:27:04.620Z,10.77
2022-11-16T17:29:33.483Z,9.73
2022-11-16T17:32:03.262Z,10.77
2022-11-16T17:34:32.304Z,10.87
2022-11-16T17:37:00.636Z,11.37
2022-11-16T17:39:28.889Z,10.70
2022-11-16T17:41:57.295Z,11.60
2022-11-16T17:44:26.640Z,9.33
2022-11-16T17:46:54.917Z,9.83
2022-11-16T17:49:24.539Z,9.60
2022-11-16T17:51:52.905Z,10.03
2022-11-16T17:54:21.191Z,11.20
2022-11-16T17:56:49.645Z,10.20
2022-11-16T17:59:17.926Z,15.50
2022-11-16T18:01:46.268Z,10.40
2022-11-16T18:04:14.668Z,10.23
2022-11-16T18:06:44.314Z,9.80
2022-11-16T18:09:12.600Z,9.70
2022-11-16T18:11:40.875Z,11.33
2022-11-16T18:14:10.520Z,10.30
2022-11-16T18:16:41.060Z,9.13
2022-11-16T18:19:09.914Z,8.67
2022-11-16T18:21:40.584Z,62.60
2022-11-16T18:24:10.683Z,19.13
2022-11-16T18:26:39.178Z,226.23
2022-11-16T18:29:08.996Z,22.40
2022-11-16T18:31:37.241Z,9.97
2022-11-16T18:34:05.887Z,10.00
2022-11-16T18:36:34.178Z,13.03
2022-11-16T18:39:02.526Z,9.00
2022-11-16T18:41:32.309Z,8.40
2022-11-16T18:44:01.722Z,8.67
2022-11-16T18:46:31.179Z,9.30
2022-11-16T18:48:59.523Z,8.93
2022-11-16T18:51:28.344Z,8.07
2022-11-16T18:53:56.823Z,8.47
2022-11-16T18:56:25.203Z,7.73
2022-11-16T18:58:54.912Z,9.40
2022-11-16T19:01:24.451Z,8.80
2022-11-16T19:03:53.051Z,8.73
2022-11-16T19:06:21.780Z,8.57
2022-11-16T19:08:55.723Z,8.27
2022-11-16T19:11:24.632Z,8.37
2022-11-16T19:13:56.330Z,7.90
2022-11-16T19:16:25.152Z,8.77
2022-11-16T19:18:53.550Z,8.23
2022-11-16T19:21:22.931Z,8.40
2022-11-16T19:23:52.445Z,7.77
2022-11-16T19:26:22.418Z,8.80
2022-11-16T19:28:51.276Z,9.90
2022-11-16T19:31:22.663Z,7.80
2022-11-16T19:33:55.063Z,7.90
2022-11-16T19:36:23.648Z,7.77
2022-11-16T19:38:51.987Z,7.83
2022-11-16T19:41:21.598Z,7.70
2022-11-16T19:43:51.261Z,7.07
2022-11-16T19:46:21.600Z,8.30
2022-11-16T19:48:50.384Z,8.17
2022-11-16T19:51:20.663Z,7.50
2022-11-16T19:53:49.007Z,6.70
2022-11-16T19:56:18.916Z,7.33
2022-11-16T19:58:47.318Z,7.70
2022-11-16T20:01:17.316Z,7.27
2022-11-16T20:03:47.093Z,7.83
2022-11-16T20:06:16.504Z,6.27
2022-11-16T20:08:48.241Z,7.73
2022-11-16T20:11:17.718Z,6.43
2022-11-16T20:13:45.998Z,8.20
2022-11-16T20:16:14.559Z,8.20
2022-11-16T20:18:43.366Z,7.57
2022-11-16T20:21:22.471Z,7.87
2022-11-16T20:23:51.604Z,8.80
2022-11-16T20:26:20.390Z,7.03
2022-11-16T20:28:51.033Z,7.70
2022-11-16T20:31:20.803Z,8.20
2022-11-16T20:33:51.580Z,8.47
2022-11-16T20:36:22.728Z,9.20
2022-11-16T20:38:51.060Z,7.30
2022-11-16T20:41:20.869Z,7.77
2022-11-16T20:43:51.218Z,7.30
2022-11-16T20:46:19.941Z,6.97
2022-11-16T20:48:48.287Z,7.73
2022-11-16T20:51:18.425Z,8.93
2022-11-16T20:53:48.913Z,6.47
2022-11-16T20:56:17.592Z,7.10
2022-11-16T20:58:45.927Z,7.00
2022-11-16T21:01:15.618Z,6.67
2022-11-16T21:03:44.714Z,7.17
2022-11-16T21:06:13.459Z,7.03
2022-11-16T21:08:41.853Z,6.63
2022-11-16T21:11:15.700Z,6.70
2022-11-16T21:14:03.720Z,6.43
2022-11-16T21:16:32.063Z,6.43
2022-11-16T21:19:00.396Z,6.10
2022-11-16T21:21:29.026Z,7.40
2022-11-16T21:23:57.350Z,9.93
2022-11-16T21:26:29.275Z,6.50
2022-11-16T21:28:57.870Z,7.77
2022-11-16T21:31:27.453Z,6.40
2022-11-16T21:33:55.851Z,7.70
2022-11-16T21:36:25.550Z,6.50
2022-11-16T21:38:54.053Z,6.57
2022-11-16T21:41:23.968Z,6.17
2022-11-16T21:43:53.670Z,6.53
2022-11-16T21:46:23.059Z,6.40
2022-11-16T21:48:52.777Z,6.17
2022-11-16T21:51:22.373Z,5.20
2022-11-16T21:53:50.995Z,6.43
2022-11-16T21:56:20.441Z,6.10
2022-11-16T21:58:50.401Z,5.90
2022-11-16T22:01:20.283Z,6.40
2022-11-16T22:04:08.546Z,6.40
2022-11-16T22:06:54.343Z,7.23
2022-11-16T22:09:22.907Z,6.87
2022-11-16T22:11:51.243Z,6.67
2022-11-16T22:14:19.537Z,6.87
2022-11-16T22:16:49.164Z,7.00
2022-11-16T22:19:17.469Z,7.23
2022-11-16T22:21:45.737Z,8.47
2022-11-16T22:24:13.970Z,8.20
2022-11-16T22:26:42.780Z,8.10
2022-11-16T22:29:11.046Z,8.40
2022-11-16T22:31:39.367Z,6.70
2022-11-16T22:34:09.044Z,7.43
2022-11-16T22:36:37.355Z,6.90
2022-11-16T22:39:05.687Z,6.77
2022-11-16T22:41:33.971Z,6.97
2022-11-16T22:44:02.303Z,5.97
2022-11-16T22:46:30.593Z,6.30
2022-11-16T22:48:59.081Z,6.53
2022-11-16T22:51:29.474Z,6.97
2022-11-16T22:53:58.794Z,6.97
2022-11-16T22:56:27.104Z,6.77
2022-11-16T22:58:55.501Z,5.83
2022-11-16T23:01:23.860Z,6.47
2022-11-16T23:03:52.227Z,9.20
2022-11-16T23:06:20.612Z,7.07
2022-11-16T23:08:50.358Z,6.90
2022-11-16T23:11:37.340Z,7.63
2022-11-16T23:14:24.206Z,7.60
2022-11-16T23:16:52.764Z,8.37
2022-11-16T23:19:39.714Z,7.83
2022-11-16T23:22:26.109Z,9.73
2022-11-16T23:25:13.203Z,8.40
2022-11-16T23:27:43.805Z,10.20
2022-11-16T23:30:13.436Z,8.50
2022-11-16T23:32:42.063Z,8.80
2022-11-16T23:35:10.713Z,7.40
2022-11-16T23:37:52.512Z,8.67
2022-11-16T23:40:22.599Z,9.37
2022-11-16T23:43:08.007Z,9.30
2022-11-16T23:45:36.799Z,8.30
2022-11-16T23:48:05.909Z,9.00
2022-11-16T23:50:34.245Z,9.00
2022-11-16T23:53:02.642Z,7.73
2022-11-16T23:55:33.712Z,9.60
2022-11-16T23:58:01.983Z,9.33
